Time;durP1;ratioP1;P1;durP2;ratioP2;P2;SDS_P1;SDS_P2;PMS_P1;PMS_P2;Temp;Humidity;BMP_temperature;BMP_pressure;BME280_temperature;BME280_humidity;BME280_pressure;Samples;Min_cycle;Max_cycle;Signal;HPM_P1;HPM_P2
2022/07/03 00:02:11;;;;;;;2.13;0.90;;;21.70;59.40;;;;;;5011243;28;21068;-72
2022/07/03 00:04:37;;;;;;;2.10;0.90;;;21.70;59.70;;;;;;5011702;28;20174;-71
2022/07/03 00:07:03;;;;;;;2.30;0.97;;;21.60;59.90;;;;;;5011843;28;20717;-71
2022/07/03 00:09:29;;;;;;;2.50;1.60;;;21.60;60.30;;;;;;5011765;28;20650;-72
2022/07/03 00:11:54;;;;;;;3.33;1.60;;;21.60;60.90;;;;;;5010017;28;20577;-71
2022/07/03 00:14:20;;;;;;;4.17;2.40;;;21.50;61.30;;;;;;5011979;28;20193;-71
2022/07/03 00:16:46;;;;;;;3.00;1.90;;;21.50;61.90;;;;;;5011857;28;20178;-71
2022/07/03 00:19:12;;;;;;;3.80;2.30;;;21.50;62.50;;;;;;5011450;28;20336;-71
2022/07/03 00:21:46;;;;;;;3.77;1.97;;;21.50;62.80;;;;;;5010752;28;20617;-72
2022/07/03 00:24:28;;;;;;;4.57;2.47;;;21.50;63.80;;;;;;5011638;28;20166;-73
2022/07/03 00:26:55;;;;;;;4.47;2.37;;;21.50;64.50;;;;;;5011517;28;20608;-71
2022/07/03 00:29:22;;;;;;;3.73;2.40;;;21.50;64.10;;;;;;5010805;28;20620;-72
2022/07/03 00:31:49;;;;;;;4.60;3.40;;;21.50;64.40;;;;;;5014974;28;20584;-72
2022/07/03 00:34:18;;;;;;;4.90;3.87;;;21.50;64.90;;;;;;5015482;28;20600;-72
2022/07/03 00:36:47;;;;;;;4.20;3.00;;;21.50;65.40;;;;;;5015324;28;20561;-72
2022/07/03 00:39:13;;;;;;;3.60;2.60;;;21.40;65.80;;;;;;5015638;28;20969;-71
2022/07/03 00:41:40;;;;;;;3.87;2.77;;;21.40;66.60;;;;;;5014305;28;20704;-72
2022/07/03 00:44:06;;;;;;;3.73;2.23;;;21.40;67.20;;;;;;5015547;28;20566;-71
2022/07/03 00:46:36;;;;;;;3.30;1.77;;;21.40;67.60;;;;;;5013874;28;20573;-72
2022/07/03 00:49:05;;;;;;;2.90;2.30;;;21.30;67.80;;;;;;5014954;28;20593;-71
2022/07/03 00:51:34;;;;;;;4.47;2.23;;;21.30;68.50;;;;;;5014567;28;20568;-72
2022/07/03 00:54:03;;;;;;;2.67;1.83;;;21.20;69.20;;;;;;5015085;28;20577;-72
2022/07/03 00:56:30;;;;;;;4.60;2.13;;;21.20;69.60;;;;;;5013755;28;20577;-72
2022/07/03 00:58:58;;;;;;;3.87;2.00;;;21.10;69.90;;;;;;5014940;28;20598;-72
2022/07/03 01:01:31;;;;;;;2.33;1.30;;;21.10;70.90;;;;;;5013833;28;20617;-71
2022/07/03 01:04:06;;;;;;;3.37;1.50;;;21.10;71.50;;;;;;5013635;28;20676;-72
2022/07/03 01:06:39;;;;;;;2.43;1.27;;;21.10;72.40;;;;;;5015225;28;20587;-73
2022/07/03 01:09:06;;;;;;;2.60;1.13;;;21.10;72.50;;;;;;5014886;28;20615;-71
2022/07/03 01:11:41;;;;;;;2.43;1.10;;;21.20;72.90;;;;;;4996618;28;20589;-72
2022/07/03 01:14:25;;;;;;;6.07;1.43;;;21.10;73.50;;;;;;5014813;28;20575;-72
2022/07/03 01:16:58;;;;;;;2.07;0.97;;;21.20;73.50;;;;;;5014779;28;20921;-72
2022/07/03 01:19:43;;;;;;;2.27;1.00;;;21.10;74.40;;;;;;5013211;28;21419;-71
2022/07/03 01:22:33;;;;;;;2.17;0.93;;;21.10;75.10;;;;;;5012859;28;20628;-72
2022/07/03 01:25:20;;;;;;;4.00;1.03;;;21.10;75.20;;;;;;5014711;28;20925;-72
2022/07/03 01:28:14;;;;;;;2.53;0.80;;;21.00;76.00;;;;;;5013177;28;20581;-72
2022/07/03 01:30:49;;;;;;;2.57;0.80;;;21.00;76.20;;;;;;5013875;28;20573;-72
2022/07/03 01:33:23;;;;;;;2.03;0.80;;;21.00;76.60;;;;;;5013748;28;20989;-72
2022/07/03 01:36:07;;;;;;;3.03;1.07;;;21.00;77.20;;;;;;5014063;28;20995;-72
2022/07/03 01:38:37;;;;;;;1.60;0.80;;;21.00;77.90;;;;;;5014372;28;20961;-72
2022/07/03 01:41:05;;;;;;;2.00;1.00;;;20.90;77.80;;;;;;5013062;28;20584;-72
2022/07/03 01:43:34;;;;;;;2.43;1.00;;;20.90;78.20;;;;;;5013265;28;20620;-73
2022/07/03 01:46:01;;;;;;;2.33;0.90;;;20.80;78.60;;;;;;5014327;28;20916;-73
2022/07/03 01:48:29;;;;;;;2.10;0.80;;;20.80;78.90;;;;;;5013239;28;20588;-73
2022/07/03 01:50:56;;;;;;;2.87;1.13;;;20.70;79.40;;;;;;5012662;28;20572;-71
2022/07/03 01:53:26;;;;;;;2.03;0.97;;;20.70;80.30;;;;;;5014630;28;20647;-71
2022/07/03 01:55:57;;;;;;;2.20;0.97;;;20.70;81.10;;;;;;5014017;28;20907;-71
2022/07/03 01:58:23;;;;;;;2.57;1.33;;;20.60;81.60;;;;;;5013976;28;20596;-72
2022/07/03 02:01:25;;;;;;;4.10;0.70;;;20.60;81.90;;;;;;5011938;28;20899;-72
2022/07/03 02:04:09;;;;;;;2.57;0.87;;;20.60;83.00;;;;;;4982125;28;20951;-72
2022/07/03 02:06:41;;;;;;;1.50;0.77;;;20.50;83.40;;;;;;5012860;28;20566;-71
2022/07/03 02:09:10;;;;;;;3.00;1.00;;;20.50;83.70;;;;;;5013929;28;21160;-71
2022/07/03 02:11:43;;;;;;;2.20;0.90;;;20.50;84.10;;;;;;5012842;28;20567;-71
2022/07/03 02:14:13;;;;;;;3.23;0.93;;;20.50;85.10;;;;;;5012800;28;20923;-71
2022/07/03 02:16:57;;;;;;;4.23;1.00;;;20.50;85.60;;;;;;5013812;28;20561;-72
2022/07/03 02:19:37;;;;;;;2.70;1.10;;;20.40;86.70;;;;;;5013476;28;20934;-71
2022/07/03 02:22:07;;;;;;;3.10;0.97;;;20.40;87.30;;;;;;4995877;28;20617;-76
2022/07/03 02:24:45;;;;;;;3.40;0.80;;;20.40;87.30;;;;;;4996155;28;20569;-75
2022/07/03 02:27:19;;;;;;;2.10;0.80;;;20.40;88.00;;;;;;5012187;28;20684;-75
2022/07/03 02:30:06;;;;;;;2.07;0.70;;;20.30;88.50;;;;;;5013000;28;20604;-75
2022/07/03 02:32:47;;;;;;;1.83;0.77;;;20.30;89.30;;;;;;5011644;28;20945;-75
2022/07/03 02:35:18;;;;;;;2.93;0.93;;;20.30;89.80;;;;;;5012038;28;20619;-76
2022/07/03 02:38:07;;;;;;;3.63;1.00;;;20.20;90.30;;;;;;4995395;28;20998;-75
2022/07/03 02:40:42;;;;;;;1.50;0.80;;;20.20;90.40;;;;;;5012532;28;20664;-75
2022/07/03 02:43:18;;;;;;;3.93;0.80;;;20.20;90.40;;;;;;5012765;28;20641;-75
2022/07/03 02:48:54;;;;;;;1.70;0.80;;;20.10;91.00;;;;;;4992282;28;20605;-76
2022/07/03 02:51:31;;;;;;;1.80;0.80;;;20.10;90.80;;;;;;5012185;28;20588;-75
2022/07/03 02:54:02;;;;;;;3.60;0.80;;;20.10;91.30;;;;;;5012620;28;21112;-75
2022/07/03 02:56:42;;;;;;;1.60;0.90;;;20.10;91.30;;;;;;5011508;28;20570;-76
2022/07/03 02:59:16;;;;;;;4.13;1.00;;;20.10;91.70;;;;;;5012835;28;20977;-75
2022/07/03 03:02:06;;;;;;;3.67;1.83;;;20.10;91.70;;;;;;5010642;28;20624;-75
2022/07/03 03:04:34;;;;;;;1.70;0.90;;;20.00;92.20;;;;;;5012859;28;20576;-75
2022/07/03 03:07:10;;;;;;;2.53;1.20;;;20.00;91.90;;;;;;5012809;28;20582;-76
2022/07/03 03:09:42;;;;;;;2.37;0.70;;;20.00;92.40;;;;;;5012409;28;20612;-75
2022/07/03 03:12:09;;;;;;;3.37;1.00;;;20.00;92.60;;;;;;5012139;28;21127;-75
2022/07/03 03:14:43;;;;;;;2.80;0.90;;;19.90;92.60;;;;;;5012546;28;20585;-75
2022/07/03 03:17:23;;;;;;;4.33;1.03;;;19.90;92.90;;;;;;5012764;28;20573;-75
2022/07/03 03:19:55;;;;;;;1.60;0.90;;;19.90;93.10;;;;;;5012197;28;20605;-75
2022/07/03 03:22:21;;;;;;;2.37;1.10;;;19.90;93.50;;;;;;5015195;28;20621;-75
2022/07/03 03:24:47;;;;;;;2.07;0.80;;;19.80;93.40;;;;;;5011180;28;20581;-75
2022/07/03 03:27:13;;;;;;;3.73;0.90;;;19.80;93.60;;;;;;5012450;28;20202;-75
2022/07/03 03:29:40;;;;;;;2.57;0.87;;;19.80;93.90;;;;;;5010513;28;20724;-75
2022/07/03 03:32:06;;;;;;;4.60;0.97;;;19.70;94.10;;;;;;5010393;28;20581;-75
2022/07/03 03:34:32;;;;;;;3.00;0.90;;;19.70;94.20;;;;;;5011025;28;20909;-75
2022/07/03 03:36:59;;;;;;;2.63;0.80;;;19.70;94.40;;;;;;5011083;28;20570;-75
2022/07/03 03:39:25;;;;;;;3.73;0.87;;;19.70;95.00;;;;;;5010642;28;20632;-75
2022/07/03 03:41:52;;;;;;;2.83;1.00;;;19.60;94.90;;;;;;5011132;28;20620;-75
2022/07/03 03:44:18;;;;;;;1.97;0.80;;;19.60;95.10;;;;;;5012225;28;20907;-75
2022/07/03 03:46:44;;;;;;;3.60;0.80;;;19.60;95.30;;;;;;5010908;28;20627;-75
2022/07/03 03:49:10;;;;;;;2.50;0.97;;;19.50;95.70;;;;;;5010844;28;21375;-75
2022/07/03 03:51:36;;;;;;;4.13;0.87;;;19.50;96.20;;;;;;5011418;28;21188;-76
2022/07/03 03:54:03;;;;;;;3.13;1.07;;;19.50;95.90;;;;;;5010979;28;20577;-76
2022/07/03 03:56:29;;;;;;;1.73;0.83;;;19.50;96.20;;;;;;5012319;28;20232;-75
2022/07/03 03:58:55;;;;;;;2.33;0.90;;;19.50;96.20;;;;;;5016074;28;20993;-75
2022/07/03 04:01:20;;;;;;;2.77;1.00;;;19.50;96.40;;;;;;4993231;28;20189;-76
2022/07/03 04:03:46;;;;;;;3.00;0.80;;;19.50;97.00;;;;;;5010428;28;20174;-75
2022/07/03 04:06:12;;;;;;;4.17;0.93;;;19.50;97.30;;;;;;5013237;28;20170;-73
2022/07/03 04:08:37;;;;;;;1.70;0.77;;;19.60;97.10;;;;;;5011463;28;20178;-73
2022/07/03 04:11:03;;;;;;;2.07;0.70;;;19.60;97.30;;;;;;4993448;28;20190;-72
2022/07/03 04:13:29;;;;;;;2.23;1.03;;;19.70;97.50;;;;;;5011906;28;20178;-73
2022/07/03 04:15:55;;;;;;;2.00;0.80;;;19.70;97.60;;;;;;5010581;28;20170;-73
2022/07/03 04:18:22;;;;;;;1.70;0.80;;;19.70;97.60;;;;;;5011825;28;20190;-73
2022/07/03 04:20:48;;;;;;;2.83;1.40;;;19.80;97.70;;;;;;5010958;28;20576;-72
2022/07/03 04:23:13;;;;;;;3.50;1.00;;;19.80;97.80;;;;;;5011650;28;21210;-72
2022/07/03 04:25:39;;;;;;;2.50;0.70;;;19.90;98.00;;;;;;4994097;28;20581;-71
2022/07/03 04:28:05;;;;;;;2.10;0.80;;;19.90;98.00;;;;;;4993892;28;20190;-73
2022/07/03 04:30:31;;;;;;;2.57;0.70;;;20.00;98.10;;;;;;5010865;28;20228;-72
2022/07/03 04:32:56;;;;;;;3.23;0.90;;;20.00;98.10;;;;;;5011730;28;20174;-72
2022/07/03 04:35:22;;;;;;;1.73;0.70;;;20.00;98.20;;;;;;5011584;28;20194;-72
2022/07/03 04:37:48;;;;;;;2.53;0.80;;;20.10;98.30;;;;;;5011566;28;20162;-72
2022/07/03 04:40:14;;;;;;;3.20;1.77;;;20.20;98.50;;;;;;5011279;28;20596;-72
2022/07/03 04:42:40;;;;;;;1.90;0.90;;;20.20;98.60;;;;;;5009843;28;20248;-72
2022/07/03 04:45:07;;;;;;;1.77;0.80;;;20.30;98.70;;;;;;5012543;28;20581;-77
2022/07/03 04:47:33;;;;;;;3.30;1.00;;;20.30;98.70;;;;;;5011593;28;20174;-72
2022/07/03 04:49:59;;;;;;;5.10;1.00;;;20.40;98.80;;;;;;5011125;28;20655;-72
2022/07/03 04:52:25;;;;;;;1.90;0.90;;;20.40;98.80;;;;;;5010573;28;20632;-72
2022/07/03 04:54:51;;;;;;;1.60;0.80;;;20.50;98.90;;;;;;5010375;28;20178;-72
2022/07/03 04:57:16;;;;;;;4.00;1.03;;;20.50;98.80;;;;;;5011378;28;20174;-72
2022/07/03 04:59:42;;;;;;;2.97;1.30;;;20.60;98.80;;;;;;5010990;28;20601;-73
2022/07/03 05:02:08;;;;;;;3.47;1.13;;;20.60;98.80;;;;;;5009610;28;20213;-72
2022/07/03 05:04:34;;;;;;;2.50;0.90;;;20.60;98.90;;;;;;5011449;28;20171;-72
2022/07/03 05:07:00;;;;;;;3.43;1.07;;;20.60;99.00;;;;;;5011206;28;20676;-72
2022/07/03 05:09:26;;;;;;;5.00;1.03;;;20.60;99.50;;;;;;5011244;28;20190;-72
2022/07/03 05:11:52;;;;;;;3.60;1.10;;;20.60;99.40;;;;;;5010334;28;20655;-72
2022/07/03 05:14:18;;;;;;;2.03;1.00;;;20.70;99.80;;;;;;5011716;28;20249;-72
2022/07/03 05:16:44;;;;;;;2.00;1.00;;;20.90;99.90;;;;;;5012466;28;21013;-73
2022/07/03 05:19:09;;;;;;;2.10;1.00;;;21.00;99.90;;;;;;5014660;28;20593;-72
2022/07/03 05:21:35;;;;;;;2.47;0.90;;;21.20;99.90;;;;;;5013578;28;20194;-72
2022/07/03 05:24:01;;;;;;;1.90;1.00;;;21.30;99.90;;;;;;5018622;28;20163;-73
2022/07/03 05:26:27;;;;;;;3.20;1.00;;;21.40;99.50;;;;;;5014683;28;20170;-72
2022/07/03 05:28:52;;;;;;;3.07;1.20;;;21.60;99.30;;;;;;5014435;28;20280;-73
2022/07/03 05:31:18;;;;;;;2.70;1.10;;;21.60;99.10;;;;;;5013666;28;20257;-73
2022/07/03 05:33:44;;;;;;;3.30;1.00;;;21.70;99.00;;;;;;5013086;28;20174;-72
2022/07/03 05:36:10;;;;;;;2.43;1.70;;;21.70;98.80;;;;;;5014175;28;20903;-72
2022/07/03 05:41:20;;;;;;;2.57;0.80;;;21.90;99.20;;;;;;5013451;28;20171;-72
2022/07/03 05:43:46;;;;;;;2.67;0.97;;;22.00;98.90;;;;;;5014005;28;20558;-72
2022/07/03 05:46:12;;;;;;;1.80;0.83;;;22.20;98.80;;;;;;5014317;28;20166;-72
2022/07/03 05:48:37;;;;;;;1.90;0.80;;;22.30;98.80;;;;;;5014111;28;20190;-72
2022/07/03 05:51:03;;;;;;;3.63;1.10;;;22.50;98.80;;;;;;5012352;28;20578;-72
2022/07/03 05:53:29;;;;;;;2.37;1.13;;;22.70;98.80;;;;;;5013474;28;20178;-72
2022/07/03 05:55:57;;;;;;;3.10;0.93;;;22.90;98.80;;;;;;5013958;28;20589;-72
2022/07/03 05:58:23;;;;;;;2.37;0.90;;;23.30;99.20;;;;;;5011554;28;20663;-72
2022/07/03 06:00:49;;;;;;;3.80;0.80;;;23.90;99.70;;;;;;5011102;28;20884;-75
2022/07/03 06:03:15;;;;;;;4.47;1.00;;;24.70;99.90;;;;;;5013332;28;20664;-75
2022/07/03 06:05:40;;;;;;;2.40;0.80;;;25.50;99.90;;;;;;5011572;28;20174;-75
2022/07/03 06:08:06;;;;;;;2.00;0.80;;;26.40;99.80;;;;;;5013558;28;20170;-76
2022/07/03 06:10:33;;;;;;;2.53;0.90;;;27.40;99.10;;;;;;5013096;28;20170;-76
2022/07/03 06:12:59;;;;;;;1.77;0.80;;;28.30;98.00;;;;;;5012377;28;20178;-74
2022/07/03 06:15:25;;;;;;;1.63;0.70;;;29.20;96.70;;;;;;5014083;28;20565;-75
2022/07/03 06:17:51;;;;;;;1.67;0.63;;;30.10;95.30;;;;;;5013610;28;21000;-75
2022/07/03 06:20:18;;;;;;;2.33;0.60;;;30.90;94.30;;;;;;5013270;28;20563;-75
2022/07/03 06:22:44;;;;;;;2.43;0.70;;;31.70;92.50;;;;;;5012988;28;20626;-75
2022/07/03 06:25:10;;;;;;;3.17;0.80;;;32.30;91.00;;;;;;5012316;28;20605;-74
2022/07/03 06:27:36;;;;;;;2.27;0.70;;;33.00;88.60;;;;;;5011005;28;20587;-74
2022/07/03 06:30:03;;;;;;;2.60;0.70;;;33.60;84.70;;;;;;5015634;28;20600;-74
2022/07/03 06:32:29;;;;;;;2.43;0.90;;;34.20;81.10;;;;;;5013277;28;20704;-74
2022/07/03 06:34:55;;;;;;;2.23;0.63;;;34.70;77.60;;;;;;5011919;28;20565;-74
2022/07/03 06:37:21;;;;;;;2.30;0.80;;;35.20;74.50;;;;;;5012293;28;20572;-75
2022/07/03 06:39:47;;;;;;;1.77;0.60;;;35.60;71.40;;;;;;5015298;28;20688;-75
2022/07/03 06:42:13;;;;;;;10.60;1.00;;;36.00;68.90;;;;;;5012685;28;21339;-75
2022/07/03 06:44:39;;;;;;;1.80;0.80;;;36.40;66.60;;;;;;5011654;28;20558;-71
2022/07/03 06:47:05;;;;;;;2.27;0.80;;;36.70;63.80;;;;;;5013168;28;20577;-72
2022/07/03 06:49:34;;;;;;;2.23;0.77;;;37.00;61.10;;;;;;5012431;28;20187;-72
2022/07/03 06:52:00;;;;;;;1.60;0.70;;;37.30;59.00;;;;;;5012610;28;20581;-73
2022/07/03 06:54:27;;;;;;;2.17;0.80;;;37.60;58.50;;;;;;5013018;28;20587;-72
2022/07/03 06:56:53;;;;;;;1.90;0.90;;;37.90;57.40;;;;;;5011099;28;20574;-72
2022/07/03 06:59:19;;;;;;;3.20;0.90;;;38.20;55.60;;;;;;5012503;28;20612;-76
2022/07/03 07:01:48;;;;;;;2.70;1.00;;;38.30;54.00;;;;;;5013006;28;20283;-76
2022/07/03 07:04:15;;;;;;;2.20;0.93;;;38.30;52.00;;;;;;5019064;28;20178;-75
2022/07/03 07:06:45;;;;;;;1.83;0.90;;;38.40;51.70;;;;;;5013642;28;20680;-76
2022/07/03 07:09:10;;;;;;;5.67;0.87;;;38.40;50.90;;;;;;5007991;28;20609;-81
2022/07/03 07:11:36;;;;;;;2.53;1.00;;;38.40;50.50;;;;;;5018810;28;20611;-72
2022/07/03 07:14:02;;;;;;;2.37;1.17;;;38.40;50.10;;;;;;5013127;28;20174;-72
2022/07/03 07:16:29;;;;;;;1.73;0.73;;;38.50;50.00;;;;;;5012701;28;20178;-72
2022/07/03 07:18:55;;;;;;;2.47;0.80;;;38.70;49.60;;;;;;5012596;28;20216;-73
2022/07/03 07:21:21;;;;;;;2.00;0.90;;;38.80;48.90;;;;;;5011888;28;20627;-75
2022/07/03 07:23:47;;;;;;;2.60;0.90;;;38.90;48.40;;;;;;5014243;28;20589;-76
2022/07/03 07:26:13;;;;;;;2.60;0.80;;;39.10;47.90;;;;;;5006146;28;20589;-75
2022/07/03 07:28:39;;;;;;;2.07;0.80;;;39.30;47.30;;;;;;5027349;28;20223;-75
2022/07/03 07:31:04;;;;;;;1.63;0.70;;;39.40;47.00;;;;;;5011880;28;20208;-76
2022/07/03 07:33:30;;;;;;;1.73;1.00;;;39.60;46.60;;;;;;5011333;28;20178;-76
2022/07/03 07:35:56;;;;;;;1.67;0.90;;;39.70;46.30;;;;;;5012330;28;20205;-76
2022/07/03 07:38:22;;;;;;;1.63;0.80;;;39.90;45.70;;;;;;5011330;28;20589;-77
2022/07/03 07:40:47;;;;;;;3.93;1.20;;;39.90;45.10;;;;;;5011360;28;20189;-77
2022/07/03 07:43:13;;;;;;;2.00;0.70;;;40.00;44.10;;;;;;5012546;28;20202;-73
2022/07/03 07:45:39;;;;;;;3.10;0.90;;;40.00;44.20;;;;;;5017254;28;20180;-73
2022/07/03 07:48:05;;;;;;;1.80;0.87;;;40.20;44.20;;;;;;5031863;28;20174;-73
2022/07/03 07:50:31;;;;;;;1.90;1.10;;;40.30;44.00;;;;;;5010159;28;20182;-73
2022/07/03 07:52:57;;;;;;;2.70;0.90;;;40.40;43.60;;;;;;5011967;28;20676;-73
2022/07/03 07:55:22;;;;;;;2.30;1.20;;;40.50;43.60;;;;;;5010831;28;20174;-74
2022/07/03 07:57:49;;;;;;;2.10;0.90;;;40.60;42.70;;;;;;5010000;28;20178;-74
2022/07/03 08:00:17;;;;;;;1.40;0.80;;;40.60;42.30;;;;;;5011585;28;20237;-73
2022/07/03 08:05:35;;;;;;;2.30;0.80;;;40.70;41.50;;;;;;5012041;28;20554;-73
2022/07/03 08:08:08;;;;;;;1.57;0.90;;;40.70;41.00;;;;;;5011350;28;20593;-73
2022/07/03 08:10:39;;;;;;;3.13;0.90;;;40.70;40.50;;;;;;5009683;28;20584;-73
2022/07/03 08:13:05;;;;;;;2.80;0.80;;;40.70;40.70;;;;;;5010687;28;21156;-78
2022/07/03 08:15:31;;;;;;;2.40;0.73;;;40.80;40.50;;;;;;5009728;28;20565;-78
2022/07/03 08:17:57;;;;;;;2.23;0.80;;;40.80;40.10;;;;;;5010281;28;20607;-79
2022/07/03 08:20:22;;;;;;;1.60;0.80;;;40.80;40.40;;;;;;5011884;28;20657;-79
2022/07/03 08:22:48;;;;;;;1.73;0.90;;;40.90;39.80;;;;;;5044150;22;20268;-79
2022/07/03 08:25:18;;;;;;;1.77;0.80;;;40.90;39.50;;;;;;5031544;28;20223;-79
2022/07/03 08:27:47;;;;;;;2.30;1.00;;;40.90;39.00;;;;;;5031314;28;20178;-79
2022/07/03 08:30:17;;;;;;;2.63;0.80;;;40.90;38.90;;;;;;5013592;28;20973;-78
2022/07/03 08:32:44;;;;;;;5.73;1.23;;;40.80;39.20;;;;;;5030962;28;20966;-79
2022/07/03 08:35:10;;;;;;;2.03;0.90;;;40.90;39.00;;;;;;5031243;28;20564;-79
2022/07/03 08:37:36;;;;;;;4.50;1.20;;;40.90;38.80;;;;;;5031296;28;20564;-79
2022/07/03 08:40:03;;;;;;;2.50;0.70;;;40.90;38.30;;;;;;5015421;28;20596;-79
2022/07/03 08:42:32;;;;;;;2.10;0.60;;;40.90;38.10;;;;;;5031757;28;20638;-79
2022/07/03 08:44:59;;;;;;;2.00;0.90;;;40.90;38.00;;;;;;5034696;28;20557;-78
2022/07/03 08:47:27;;;;;;;3.80;0.70;;;40.90;37.80;;;;;;5031014;28;20577;-78
2022/07/03 08:49:54;;;;;;;2.17;0.70;;;41.00;37.90;;;;;;5030695;28;20564;-78
2022/07/03 08:52:26;;;;;;;2.23;0.80;;;41.00;37.80;;;;;;5034543;28;20599;-78
2022/07/03 08:54:52;;;;;;;2.90;0.70;;;41.00;37.40;;;;;;5035132;28;20573;-77
2022/07/03 08:57:18;;;;;;;1.50;0.60;;;41.10;37.20;;;;;;5036858;28;21391;-78
2022/07/03 08:59:52;;;;;;;3.10;0.90;;;41.20;37.60;;;;;;5047037;28;20178;-78
2022/07/03 09:02:18;;;;;;;1.50;0.50;;;41.30;37.10;;;;;;5040703;28;20640;-78
2022/07/03 09:04:46;;;;;;;2.50;0.80;;;41.40;36.90;;;;;;5036343;28;20572;-78
2022/07/03 09:07:13;;;;;;;1.60;0.70;;;41.40;36.40;;;;;;5037443;28;20603;-78
2022/07/03 09:09:39;;;;;;;1.53;0.70;;;41.40;37.20;;;;;;5036425;28;20626;-78
2022/07/03 09:12:05;;;;;;;1.27;0.50;;;41.50;36.30;;;;;;5033419;28;21147;-78
2022/07/03 09:14:32;;;;;;;1.63;0.83;;;41.50;35.70;;;;;;5017946;28;20186;-77
2022/07/03 09:16:58;;;;;;;1.87;0.80;;;41.50;35.70;;;;;;5034296;28;20576;-78
2022/07/03 09:19:45;;;;;;;1.70;0.60;;;41.50;35.30;;;;;;5037737;28;20588;-78
2022/07/03 09:22:21;;;;;;;1.80;0.60;;;41.60;35.70;;;;;;5034497;28;21066;-76
2022/07/03 09:24:48;;;;;;;1.30;0.60;;;41.60;35.70;;;;;;5034580;28;20655;-78
2022/07/03 09:27:23;;;;;;;1.87;0.70;;;41.50;35.20;;;;;;5033120;28;20610;-77
2022/07/03 09:30:03;;;;;;;1.40;0.60;;;41.30;34.70;;;;;;5032981;28;20953;-78
2022/07/03 09:32:38;;;;;;;2.07;0.63;;;41.10;34.80;;;;;;5033913;28;21206;-77
2022/07/03 09:35:26;;;;;;;2.27;0.63;;;41.00;35.40;;;;;;5036795;28;20583;-77
2022/07/03 09:38:01;;;;;;;2.97;0.60;;;41.00;35.20;;;;;;5034458;28;20620;-78
2022/07/03 09:40:46;;;;;;;1.80;0.70;;;41.10;35.50;;;;;;5033433;28;20575;-78
2022/07/03 09:43:12;;;;;;;1.70;0.70;;;41.20;35.50;;;;;;5032491;28;20647;-78
2022/07/03 09:46:06;;;;;;;1.43;0.67;;;41.30;35.40;;;;;;5035049;28;20564;-77
2022/07/03 09:48:34;;;;;;;4.80;0.90;;;41.30;34.90;;;;;;5032737;28;20227;-78
2022/07/03 09:51:19;;;;;;;2.10;0.60;;;41.50;35.50;;;;;;5031901;28;21022;-78
2022/07/03 09:53:48;;;;;;;1.40;0.67;;;41.50;34.80;;;;;;5032481;28;21154;-78
2022/07/03 09:56:16;;;;;;;1.50;0.60;;;41.60;35.30;;;;;;5036918;28;20576;-78
2022/07/03 09:58:58;;;;;;;1.40;0.60;;;41.60;35.00;;;;;;5000798;28;20576;-78
2022/07/03 10:01:24;;;;;;;1.60;0.70;;;41.60;34.70;;;;;;5030986;28;20568;-78
2022/07/03 10:03:51;;;;;;;3.40;1.10;;;41.60;34.50;;;;;;5033816;28;21001;-78
2022/07/03 10:06:16;;;;;;;4.37;0.63;;;41.60;35.00;;;;;;5033773;28;20588;-78
2022/07/03 10:08:43;;;;;;;1.60;0.77;;;41.70;35.00;;;;;;5033624;28;20176;-78
2022/07/03 10:11:09;;;;;;;1.90;0.63;;;41.70;34.60;;;;;;5034303;28;20256;-77
2022/07/03 10:13:40;;;;;;;1.70;0.60;;;41.80;34.40;;;;;;5033771;28;20608;-78
2022/07/03 10:16:07;;;;;;;1.70;0.70;;;41.70;34.20;;;;;;5033616;28;20572;-77
2022/07/03 10:18:39;;;;;;;2.07;0.60;;;41.60;34.40;;;;;;5033623;28;20600;-78
2022/07/03 10:21:09;;;;;;;2.43;0.90;;;41.40;33.90;;;;;;5032626;28;21162;-78
2022/07/03 10:23:35;;;;;;;2.13;0.60;;;41.20;33.90;;;;;;5031922;28;20616;-78
2022/07/03 10:26:01;;;;;;;1.60;0.60;;;41.10;34.30;;;;;;5032212;28;21193;-78
2022/07/03 10:28:29;;;;;;;1.63;0.70;;;41.10;34.20;;;;;;5015169;28;21207;-78
2022/07/03 10:30:55;;;;;;;2.73;0.70;;;41.00;35.10;;;;;;5032173;28;20977;-79
2022/07/03 10:33:22;;;;;;;1.60;0.70;;;41.10;35.50;;;;;;5037637;28;20607;-79
2022/07/03 10:35:51;;;;;;;1.73;0.80;;;41.20;35.40;;;;;;5032128;28;20649;-79
2022/07/03 10:38:45;;;;;;;2.00;0.77;;;41.30;34.80;;;;;;5033044;28;20572;-79
2022/07/03 10:46:57;;;;;;;1.83;0.70;;;41.40;34.00;;;;;;5032943;28;20557;-79
2022/07/03 10:49:23;;;;;;;2.17;0.70;;;41.20;34.10;;;;;;5032917;28;20595;-79
2022/07/03 10:52:03;;;;;;;1.70;0.70;;;41.20;34.20;;;;;;5032382;28;20247;-79
2022/07/03 10:54:33;;;;;;;1.50;0.60;;;41.10;33.90;;;;;;5032867;28;20204;-78
2022/07/03 10:57:01;;;;;;;2.13;0.80;;;41.00;34.00;;;;;;5032795;28;20568;-78
2022/07/03 10:59:36;;;;;;;1.70;0.90;;;40.90;34.50;;;;;;5031578;28;21107;-79
2022/07/03 11:02:18;;;;;;;2.20;1.00;;;40.80;34.00;;;;;;5032071;28;20624;-79
2022/07/03 11:04:56;;;;;;;2.40;1.00;;;40.60;34.00;;;;;;5032594;28;20573;-79
2022/07/03 11:07:23;;;;;;;3.83;0.80;;;40.40;34.30;;;;;;5014748;28;20634;-78
2022/07/03 11:10:12;;;;;;;1.90;1.00;;;40.20;34.50;;;;;;5035894;28;20926;-78
2022/07/03 11:12:56;;;;;;;1.40;0.70;;;39.90;34.00;;;;;;5030583;28;20604;-78
2022/07/03 11:15:30;;;;;;;2.07;0.80;;;39.60;34.30;;;;;;5032315;28;20572;-78
2022/07/03 11:18:17;;;;;;;1.73;0.70;;;39.40;34.60;;;;;;5032089;28;20576;-78
2022/07/03 11:20:43;;;;;;;2.23;0.70;;;39.20;34.80;;;;;;5031453;28;20557;-79
2022/07/03 11:23:27;;;;;;;2.80;0.70;;;39.10;35.40;;;;;;5031620;28;20628;-78
2022/07/03 11:26:08;;;;;;;2.13;0.70;;;39.00;34.80;;;;;;5031068;28;20182;-78
2022/07/03 11:28:33;;;;;;;1.80;0.70;;;38.90;35.30;;;;;;5030992;28;20930;-79
2022/07/03 11:31:11;;;;;;;2.70;1.43;;;38.80;34.70;;;;;;5031381;28;20565;-78
2022/07/03 11:34:00;;;;;;;1.90;0.90;;;38.60;34.80;;;;;;5033111;28;20234;-79
2022/07/03 11:36:46;;;;;;;1.90;0.70;;;38.50;35.20;;;;;;5013492;28;20691;-78
2022/07/03 11:39:13;;;;;;;3.77;0.80;;;38.60;35.20;;;;;;5032012;28;21028;-78
2022/07/03 11:41:39;;;;;;;1.47;0.87;;;38.40;35.50;;;;;;5031202;28;20200;-78
2022/07/03 11:44:07;;;;;;;4.20;1.43;;;38.30;35.40;;;;;;5030605;28;20568;-78
2022/07/03 11:46:35;;;;;;;2.13;0.87;;;38.10;35.30;;;;;;5035600;28;20173;-79
2022/07/03 11:49:16;;;;;;;1.53;0.70;;;37.90;35.20;;;;;;5035234;28;20615;-78
2022/07/03 11:52:01;;;;;;;2.33;0.70;;;37.60;35.20;;;;;;5046182;28;20618;-78
2022/07/03 11:54:31;;;;;;;6.43;0.80;;;37.40;35.70;;;;;;5031820;28;20656;-78
2022/07/03 11:56:57;;;;;;;1.53;0.70;;;37.30;36.00;;;;;;5031857;28;21297;-78
2022/07/03 11:59:23;;;;;;;1.50;0.70;;;37.10;36.00;;;;;;5031796;28;20667;-78
2022/07/03 12:01:49;;;;;;;4.60;0.70;;;37.00;36.30;;;;;;5030925;28;20631;-78
2022/07/03 12:04:22;;;;;;;2.73;1.20;;;37.00;36.20;;;;;;5031636;28;20901;-78
2022/07/03 12:06:56;;;;;;;3.10;0.90;;;36.90;36.30;;;;;;5031589;28;20243;-78
2022/07/03 12:09:24;;;;;;;3.87;1.00;;;36.80;36.30;;;;;;5030518;28;20595;-77
2022/07/03 12:13:02;;;;;;;2.80;0.70;;;36.80;36.30;;;;;;5033053;28;20635;-79
2022/07/03 12:15:27;;;;;;;1.43;0.63;;;36.60;36.20;;;;;;5027081;28;20654;-78
2022/07/03 12:17:53;;;;;;;1.83;0.60;;;36.50;36.30;;;;;;5031701;28;20634;-78
2022/07/03 12:20:19;;;;;;;1.83;0.70;;;36.40;36.20;;;;;;5031027;28;20559;-78
2022/07/03 12:22:45;;;;;;;1.63;0.80;;;36.20;36.30;;;;;;5031467;28;20631;-77
2022/07/03 12:25:12;;;;;;;2.47;0.70;;;35.90;36.30;;;;;;5040811;28;20687;-78
2022/07/03 12:27:41;;;;;;;1.50;0.70;;;35.70;36.70;;;;;;5017875;28;20618;-78
2022/07/03 12:30:08;;;;;;;3.33;0.83;;;35.60;36.90;;;;;;5017972;28;20587;-78
2022/07/03 12:32:36;;;;;;;1.70;0.77;;;35.50;37.00;;;;;;5033950;28;20625;-78
2022/07/03 12:35:03;;;;;;;2.60;1.00;;;35.40;37.20;;;;;;5035852;28;20942;-77
2022/07/03 12:37:33;;;;;;;1.40;0.70;;;35.30;37.70;;;;;;5037004;28;21180;-78
2022/07/03 12:39:59;;;;;;;2.13;0.80;;;35.20;37.80;;;;;;5040080;28;21029;-78
2022/07/03 12:42:25;;;;;;;4.33;0.70;;;35.10;37.30;;;;;;5039222;28;20671;-78
2022/07/03 12:45:03;;;;;;;2.70;1.20;;;34.90;38.00;;;;;;5037006;28;20181;-78
2022/07/03 12:47:30;;;;;;;2.17;1.33;;;34.70;37.50;;;;;;5036624;28;20180;-78
2022/07/03 12:50:03;;;;;;;3.67;1.40;;;34.40;37.30;;;;;;5036042;28;20613;-78
2022/07/03 12:52:33;;;;;;;1.60;0.90;;;34.20;37.40;;;;;;5034042;28;20678;-78
2022/07/03 12:55:01;;;;;;;6.07;5.47;;;33.90;37.30;;;;;;5035641;28;20607;-79
2022/07/03 13:00:21;;;;;;;3.43;2.80;;;33.30;37.50;;;;;;5034611;28;20576;-74
2022/07/03 13:02:47;;;;;;;2.67;1.00;;;33.00;38.00;;;;;;5032783;28;21006;-74
2022/07/03 13:05:16;;;;;;;2.50;0.87;;;32.80;38.30;;;;;;5034865;28;20608;-74
2022/07/03 13:07:43;;;;;;;2.07;0.90;;;32.60;38.60;;;;;;5034801;28;20652;-75
2022/07/03 13:10:09;;;;;;;3.20;1.00;;;32.40;38.90;;;;;;5034475;28;20603;-74
2022/07/03 13:12:54;;;;;;;4.33;0.80;;;32.30;39.20;;;;;;5034187;28;20617;-74
2022/07/03 13:15:28;;;;;;;2.50;0.60;;;32.00;39.70;;;;;;5034644;28;20583;-74
2022/07/03 13:17:53;;;;;;;1.40;0.73;;;31.90;39.50;;;;;;5034284;28;20564;-74
2022/07/03 13:20:24;;;;;;;2.03;0.70;;;31.70;39.60;;;;;;5034333;28;20599;-73